createdAt,value
2019-02-26T00:01:18.525Z,32.15
2019-02-26T00:03:45.328Z,34.50
2019-02-26T00:06:16.194Z,33.75
2019-02-26T00:08:47.185Z,35.10
2019-02-26T00:11:15.317Z,35.65
2019-02-26T00:13:43.644Z,34.67
2019-02-26T00:16:14.948Z,34.98
2019-02-26T00:18:42.686Z,35.85
2019-02-26T00:21:11.550Z,35.03
2019-02-26T00:23:39.844Z,35.30
2019-02-26T00:26:10.456Z,36.03
2019-02-26T00:28:39.085Z,36.70
2019-02-26T00:31:07.607Z,38.05
2019-02-26T00:33:36.206Z,36.20
2019-02-26T00:36:04.867Z,35.70
2019-02-26T00:38:35.431Z,36.27
2019-02-26T00:41:06.084Z,34.70
2019-02-26T00:43:36.722Z,36.77
2019-02-26T00:46:05.689Z,36.13
2019-02-26T00:48:36.029Z,37.40
2019-02-26T00:51:04.348Z,36.53
2019-02-26T00:53:33.089Z,36.33
2019-02-26T00:56:03.129Z,37.00
2019-02-26T00:58:32.059Z,37.35
2019-02-26T01:01:00.989Z,38.28
2019-02-26T01:03:29.028Z,38.48
2019-02-26T01:05:59.099Z,38.13
2019-02-26T01:08:26.804Z,37.85
2019-02-26T01:10:56.956Z,37.35
2019-02-26T01:13:25.585Z,36.93
2019-02-26T01:15:54.567Z,34.30
2019-02-26T01:18:24.595Z,35.43
2019-02-26T01:20:54.907Z,35.83
2019-02-26T01:23:24.382Z,35.38
2019-02-26T01:25:54.670Z,36.63
2019-02-26T01:28:24.828Z,37.17
2019-02-26T01:30:55.559Z,38.00
2019-02-26T01:33:24.719Z,36.50
2019-02-26T01:35:55.056Z,36.77
2019-02-26T01:38:23.782Z,35.90
2019-02-26T01:40:54.240Z,36.00
2019-02-26T01:43:21.971Z,36.08
2019-02-26T01:45:51.526Z,38.70
2019-02-26T01:48:20.416Z,35.57
2019-02-26T01:50:48.766Z,37.65
2019-02-26T01:53:19.239Z,35.90
2019-02-26T01:55:48.390Z,37.28
2019-02-26T01:58:17.260Z,36.15
2019-02-26T02:00:46.141Z,35.20
2019-02-26T02:03:14.192Z,42.43
2019-02-26T02:05:45.278Z,43.38
2019-02-26T02:08:13.725Z,43.92
2019-02-26T02:10:43.052Z,43.70
2019-02-26T02:13:11.509Z,41.83
2019-02-26T02:15:40.013Z,45.17
2019-02-26T02:18:09.249Z,45.13
2019-02-26T02:20:37.295Z,44.63
2019-02-26T02:23:07.059Z,44.85
2019-02-26T02:25:38.020Z,43.37
2019-02-26T02:28:06.351Z,43.98
2019-02-26T02:30:35.573Z,44.30
2019-02-26T02:33:04.244Z,45.77
2019-02-26T02:35:32.323Z,46.50
2019-02-26T02:38:02.965Z,43.28
2019-02-26T02:40:30.448Z,44.93
2019-02-26T02:43:04.001Z,45.92
2019-02-26T02:45:28.563Z,45.10
2019-02-26T02:48:00.312Z,46.02
2019-02-26T02:50:26.282Z,44.00
2019-02-26T02:52:56.138Z,43.50
2019-02-26T02:55:24.316Z,46.50
2019-02-26T02:57:54.967Z,46.23
2019-02-26T03:00:23.883Z,44.90
2019-02-26T03:02:53.792Z,45.90
2019-02-26T03:05:22.218Z,46.40
2019-02-26T03:07:53.314Z,46.53
2019-02-26T03:10:20.243Z,45.57
2019-02-26T03:12:52.179Z,46.55
2019-02-26T03:15:18.622Z,46.55
2019-02-26T03:17:47.005Z,46.75
2019-02-26T03:20:16.295Z,45.05
2019-02-26T03:22:48.376Z,46.20
2019-02-26T03:25:17.317Z,45.78
2019-02-26T03:27:44.250Z,45.30
2019-02-26T03:30:20.505Z,44.18
2019-02-26T03:32:46.128Z,47.03
2019-02-26T03:35:16.675Z,46.02
2019-02-26T03:37:43.961Z,45.70
2019-02-26T03:40:13.164Z,46.88
2019-02-26T03:42:43.333Z,46.90
2019-02-26T03:45:12.399Z,46.08
2019-02-26T03:47:40.729Z,45.95
2019-02-26T03:50:09.720Z,47.00
2019-02-26T03:52:38.066Z,48.73
2019-02-26T03:55:08.813Z,46.50
2019-02-26T03:57:40.972Z,46.60
2019-02-26T04:00:08.713Z,45.17
2019-02-26T04:02:39.902Z,45.58
2019-02-26T04:05:08.849Z,47.75
2019-02-26T04:07:37.522Z,47.07
2019-02-26T04:10:06.292Z,47.38
2019-02-26T04:12:39.292Z,48.15
2019-02-26T04:15:05.324Z,45.30
2019-02-26T04:17:36.827Z,45.52
2019-02-26T04:20:05.580Z,49.50
2019-02-26T04:22:35.073Z,46.85
2019-02-26T04:25:09.291Z,47.27
2019-02-26T04:27:49.132Z,48.73
2019-02-26T04:30:39.350Z,48.70
2019-02-26T04:33:14.527Z,46.63
2019-02-26T04:35:55.561Z,45.55
2019-02-26T04:38:31.795Z,48.10
2019-02-26T04:41:06.873Z,46.90
2019-02-26T04:44:01.300Z,46.18
2019-02-26T04:46:53.794Z,45.92
2019-02-26T04:49:21.951Z,45.95
2019-02-26T04:51:50.579Z,46.97
2019-02-26T04:54:23.963Z,48.50
2019-02-26T04:56:50.953Z,46.70
2019-02-26T04:59:19.671Z,48.80
2019-02-26T05:01:49.915Z,48.13
2019-02-26T05:04:17.840Z,46.73
2019-02-26T05:06:45.885Z,48.47
2019-02-26T05:09:14.659Z,49.87
2019-02-26T05:11:43.299Z,46.70
2019-02-26T05:14:14.281Z,49.67
2019-02-26T05:16:41.701Z,49.35
2019-02-26T05:19:10.636Z,50.85
2019-02-26T05:21:39.795Z,48.73
2019-02-26T05:24:08.210Z,46.67
2019-02-26T05:26:36.405Z,46.08
2019-02-26T05:29:05.283Z,48.73
2019-02-26T05:31:35.790Z,49.90
2019-02-26T05:34:03.739Z,52.75
2019-02-26T05:36:34.319Z,51.37
2019-02-26T05:39:02.342Z,50.05
2019-02-26T05:41:31.119Z,51.68
2019-02-26T05:44:01.860Z,49.95
2019-02-26T05:46:29.590Z,52.10
2019-02-26T05:48:58.133Z,49.83
2019-02-26T05:51:27.473Z,51.50
2019-02-26T05:54:01.219Z,51.18
2019-02-26T05:56:26.900Z,50.03
2019-02-26T05:58:55.746Z,49.13
2019-02-26T06:01:25.056Z,49.13
2019-02-26T06:03:53.736Z,48.95
2019-02-26T06:06:22.497Z,48.13
2019-02-26T06:08:51.089Z,47.58
2019-02-26T06:11:19.601Z,48.95
2019-02-26T06:13:48.364Z,48.40
2019-02-26T06:16:16.417Z,50.25
2019-02-26T06:18:46.463Z,51.60
2019-02-26T06:21:16.502Z,53.13
2019-02-26T06:23:46.173Z,52.83
2019-02-26T06:26:17.621Z,53.48
2019-02-26T06:28:46.171Z,52.73
2019-02-26T06:31:16.668Z,52.40
2019-02-26T06:33:45.932Z,51.25
2019-02-26T06:36:14.407Z,50.30
2019-02-26T06:38:43.100Z,50.45
2019-02-26T06:41:11.487Z,50.08
2019-02-26T06:43:39.930Z,49.60
2019-02-26T06:46:11.726Z,52.33
2019-02-26T06:48:39.863Z,49.75
2019-02-26T06:51:08.609Z,50.40
2019-02-26T06:53:37.296Z,51.00
2019-02-26T06:56:05.363Z,52.00
2019-02-26T06:58:33.414Z,51.02
2019-02-26T07:01:01.893Z,50.83
2019-02-26T07:03:29.919Z,49.15
2019-02-26T07:06:01.644Z,48.40
2019-02-26T07:08:30.922Z,50.85
2019-02-26T07:10:59.164Z,50.90
2019-02-26T07:13:27.576Z,48.13
2019-02-26T07:15:56.673Z,48.07
2019-02-26T07:18:25.093Z,51.53
2019-02-26T07:20:55.156Z,51.33
2019-02-26T07:23:23.164Z,51.83
2019-02-26T07:25:51.532Z,51.75
2019-02-26T07:28:20.613Z,52.20
2019-02-26T07:30:49.953Z,50.90
2019-02-26T07:33:18.402Z,50.85
2019-02-26T07:35:46.776Z,51.20
2019-02-26T07:38:16.213Z,50.60
2019-02-26T07:40:44.560Z,48.78
2019-02-26T07:43:14.906Z,50.45
2019-02-26T07:45:42.691Z,51.60
2019-02-26T07:48:16.038Z,50.05
2019-02-26T07:50:44.114Z,49.42
2019-02-26T07:53:14.361Z,49.38
2019-02-26T07:55:42.516Z,48.60
2019-02-26T07:58:11.647Z,48.42
2019-02-26T08:00:42.894Z,46.05
2019-02-26T08:03:10.369Z,46.05
2019-02-26T08:05:38.740Z,48.70
2019-02-26T08:08:07.112Z,49.75
2019-02-26T08:10:39.417Z,49.65
2019-02-26T08:13:07.871Z,51.25
2019-02-26T08:15:37.429Z,50.40
2019-02-26T08:18:05.609Z,52.80
2019-02-26T08:20:35.686Z,52.27
2019-02-26T08:23:03.732Z,50.75
2019-02-26T08:25:32.067Z,51.00
2019-02-26T08:28:01.382Z,52.88
2019-02-26T08:30:29.907Z,53.10
2019-02-26T08:32:59.014Z,52.67
2019-02-26T08:35:28.269Z,52.85
2019-02-26T08:37:56.321Z,52.23
2019-02-26T08:40:25.140Z,51.88
2019-02-26T08:42:53.812Z,53.43
2019-02-26T08:45:23.609Z,51.35
2019-02-26T08:47:52.303Z,51.35
2019-02-26T08:50:20.336Z,50.43
2019-02-26T08:52:52.318Z,52.38
2019-02-26T08:55:21.514Z,50.90
2019-02-26T08:57:51.286Z,51.80
2019-02-26T09:00:18.328Z,52.40
2019-02-26T09:02:50.545Z,49.33
2019-02-26T09:05:17.643Z,51.15
2019-02-26T09:07:47.623Z,50.90
2019-02-26T09:10:17.568Z,51.90
2019-02-26T09:12:48.575Z,51.30
2019-02-26T09:15:16.058Z,51.80
2019-02-26T09:17:44.433Z,54.10
2019-02-26T09:20:14.672Z,55.52
2019-02-26T09:22:45.732Z,61.57
2019-02-26T09:25:13.776Z,57.55
2019-02-26T09:27:43.025Z,55.83
2019-02-26T09:30:14.062Z,52.80
2019-02-26T09:32:44.755Z,51.33
2019-02-26T09:35:12.937Z,51.18
2019-02-26T09:37:42.807Z,52.62
2019-02-26T09:40:12.340Z,54.20
2019-02-26T09:42:41.008Z,54.05
2019-02-26T09:45:10.447Z,55.83
2019-02-26T09:47:39.733Z,55.95
2019-02-26T09:50:10.376Z,53.73
2019-02-26T09:52:38.817Z,52.73
2019-02-26T09:55:10.624Z,52.87
2019-02-26T09:57:38.792Z,51.80
2019-02-26T10:00:09.224Z,52.50
2019-02-26T10:02:37.792Z,51.77
2019-02-26T10:05:08.518Z,52.17
2019-02-26T10:07:38.651Z,51.58
2019-02-26T10:10:09.209Z,53.50
2019-02-26T10:12:37.449Z,53.48
2019-02-26T10:15:06.952Z,52.73
2019-02-26T10:17:37.107Z,50.52
2019-02-26T10:20:09.179Z,51.37
2019-02-26T10:22:38.493Z,53.38
2019-02-26T10:25:06.727Z,52.23
2019-02-26T10:27:36.099Z,53.03
2019-02-26T10:30:07.767Z,51.20
2019-02-26T10:32:34.751Z,53.15
2019-02-26T10:35:04.618Z,54.13
2019-02-26T10:37:34.190Z,53.67
2019-02-26T10:40:02.895Z,51.83
2019-02-26T10:42:39.607Z,51.83
2019-02-26T10:45:00.681Z,52.60
2019-02-26T10:47:29.881Z,52.20
2019-02-26T10:49:58.995Z,51.65
2019-02-26T10:52:28.690Z,51.30
2019-02-26T10:54:57.283Z,50.08
2019-02-26T10:57:28.499Z,51.40
2019-02-26T10:59:59.165Z,50.98
2019-02-26T11:02:27.937Z,51.30
2019-02-26T11:04:56.458Z,50.65
2019-02-26T11:07:26.462Z,49.63
2019-02-26T11:09:56.208Z,49.60
2019-02-26T11:12:27.748Z,49.30
2019-02-26T11:14:56.340Z,49.15
2019-02-26T11:17:26.383Z,49.80
2019-02-26T11:19:55.532Z,49.50
2019-02-26T11:22:25.786Z,48.38
2019-02-26T11:24:56.102Z,49.70
2019-02-26T11:27:25.188Z,49.53
2019-02-26T11:29:54.658Z,49.13
2019-02-26T11:32:23.864Z,48.73
2019-02-26T11:34:52.784Z,48.60
2019-02-26T11:37:22.638Z,49.75
2019-02-26T11:39:52.798Z,49.15
2019-02-26T11:42:24.155Z,46.95
2019-02-26T11:44:52.546Z,46.65
2019-02-26T11:47:21.125Z,47.48
2019-02-26T11:49:49.515Z,46.48
2019-02-26T11:52:19.624Z,46.75
2019-02-26T11:54:47.560Z,46.63
2019-02-26T11:57:17.668Z,46.50
2019-02-26T11:59:45.286Z,45.10
2019-02-26T12:02:13.339Z,46.60
2019-02-26T12:04:41.737Z,46.10
2019-02-26T12:07:10.064Z,44.90
2019-02-26T12:09:40.781Z,44.42
2019-02-26T12:12:09.247Z,44.60
2019-02-26T12:14:41.147Z,45.12
2019-02-26T12:17:08.216Z,44.27
2019-02-26T12:19:37.165Z,43.17
2019-02-26T12:22:05.994Z,44.20
2019-02-26T12:24:36.163Z,43.83
2019-02-26T12:27:04.624Z,43.02
2019-02-26T12:29:33.002Z,44.30
2019-02-26T12:32:01.893Z,43.30
2019-02-26T12:34:31.568Z,42.67
2019-02-26T12:37:02.681Z,40.78
2019-02-26T12:39:31.369Z,41.77
2019-02-26T12:41:59.892Z,40.25
2019-02-26T12:44:29.083Z,39.58
2019-02-26T12:47:00.477Z,39.55
2019-02-26T12:49:32.615Z,38.40
2019-02-26T12:52:03.312Z,38.67
2019-02-26T12:54:33.295Z,37.55
2019-02-26T12:57:00.621Z,37.80
2019-02-26T12:59:30.364Z,36.70
2019-02-26T13:01:59.566Z,35.60
2019-02-26T13:04:28.150Z,37.05
2019-02-26T13:06:56.857Z,35.95
2019-02-26T13:09:26.888Z,35.50
2019-02-26T13:12:00.950Z,35.13
2019-02-26T13:14:26.227Z,33.25
2019-02-26T13:16:56.967Z,33.40
2019-02-26T13:19:29.915Z,34.23
2019-02-26T13:22:04.900Z,34.43
2019-02-26T13:24:26.851Z,33.60
2019-02-26T13:26:59.253Z,32.35
2019-02-26T13:29:25.889Z,32.65
2019-02-26T13:31:57.181Z,32.28
2019-02-26T13:34:24.351Z,32.38
2019-02-26T13:36:55.984Z,33.23
2019-02-26T13:39:26.116Z,32.20
2019-02-26T13:41:58.480Z,33.45
2019-02-26T13:44:22.215Z,32.93
2019-02-26T13:46:50.539Z,33.30
2019-02-26T13:49:18.770Z,33.40
2019-02-26T13:51:47.354Z,33.37
2019-02-26T13:54:15.760Z,33.67
2019-02-26T13:56:44.509Z,32.80
2019-02-26T13:59:13.591Z,35.03
2019-02-26T14:01:42.348Z,34.23
2019-02-26T14:04:10.540Z,34.03
2019-02-26T14:06:38.944Z,34.55
2019-02-26T14:09:07.593Z,33.73
2019-02-26T14:11:36.185Z,32.60
2019-02-26T14:14:04.332Z,35.70
2019-02-26T14:16:34.352Z,35.17
2019-02-26T14:19:02.815Z,35.35
2019-02-26T14:21:31.338Z,34.20
2019-02-26T14:23:59.499Z,34.38
2019-02-26T14:26:29.805Z,34.05
2019-02-26T14:28:58.452Z,33.30
2019-02-26T14:31:26.649Z,32.60
2019-02-26T14:33:55.846Z,31.90
2019-02-26T14:36:24.684Z,31.77
2019-02-26T14:38:52.919Z,32.00
2019-02-26T14:41:21.068Z,32.60
2019-02-26T14:43:49.128Z,32.73
2019-02-26T14:46:17.257Z,32.60
2019-02-26T14:48:45.752Z,32.70
2019-02-26T14:51:14.341Z,33.10
2019-02-26T14:53:42.878Z,33.30
2019-02-26T14:56:13.689Z,31.97
2019-02-26T14:58:42.135Z,29.23
2019-02-26T15:01:10.327Z,26.70
2019-02-26T15:03:39.103Z,27.43
2019-02-26T15:06:07.687Z,26.80
2019-02-26T15:08:36.007Z,27.30
2019-02-26T15:11:04.447Z,27.23
2019-02-26T15:13:32.830Z,27.20
2019-02-26T15:16:01.231Z,27.20
2019-02-26T15:18:29.334Z,27.20
2019-02-26T15:20:57.458Z,27.10
2019-02-26T15:23:25.503Z,27.50
2019-02-26T15:25:53.776Z,28.45
2019-02-26T15:28:21.835Z,28.75
2019-02-26T15:30:50.149Z,29.60
2019-02-26T15:33:18.572Z,29.98
2019-02-26T15:35:46.998Z,30.02
2019-02-26T15:38:15.101Z,30.25
2019-02-26T15:40:43.421Z,30.43
2019-02-26T15:43:12.063Z,30.95
2019-02-26T15:45:40.160Z,31.82
2019-02-26T15:48:08.440Z,31.80
2019-02-26T15:50:37.717Z,31.10
2019-02-26T15:53:07.350Z,33.95
2019-02-26T15:55:35.587Z,34.30
2019-02-26T15:58:06.162Z,35.80
2019-02-26T16:00:37.442Z,35.23
2019-02-26T16:03:04.587Z,32.88
2019-02-26T16:05:32.992Z,31.02
2019-02-26T16:08:01.302Z,28.57
2019-02-26T16:10:29.393Z,28.73
2019-02-26T16:13:04.595Z,29.35
2019-02-26T16:15:33.248Z,28.75
2019-02-26T16:18:01.377Z,28.83
2019-02-26T16:20:30.504Z,27.80
2019-02-26T16:22:58.572Z,32.08
2019-02-26T16:25:26.954Z,29.72
2019-02-26T16:27:55.060Z,29.05
2019-02-26T16:30:23.662Z,28.92
2019-02-26T16:32:52.472Z,29.18
2019-02-26T16:35:24.800Z,29.25
2019-02-26T16:37:51.545Z,28.17
2019-02-26T16:40:19.839Z,28.87
2019-02-26T16:42:47.932Z,28.55
2019-02-26T16:45:17.615Z,32.33
2019-02-26T16:47:48.637Z,33.80
2019-02-26T16:50:16.478Z,34.60
2019-02-26T16:52:45.302Z,30.25
2019-02-26T16:55:15.203Z,35.70
2019-02-26T16:57:43.613Z,35.17
2019-02-26T17:00:12.851Z,33.05
2019-02-26T17:02:42.484Z,30.72
2019-02-26T17:05:14.321Z,31.50
2019-02-26T17:07:40.632Z,32.27
2019-02-26T17:10:10.357Z,30.85
2019-02-26T17:12:38.391Z,30.30
2019-02-26T17:15:07.433Z,30.60
2019-02-26T17:17:36.849Z,30.60
2019-02-26T17:20:05.475Z,30.30
2019-02-26T17:22:34.158Z,32.25
2019-02-26T17:25:02.944Z,30.30
2019-02-26T17:27:32.042Z,28.80
2019-02-26T17:30:00.174Z,30.02
2019-02-26T17:32:29.203Z,29.60
2019-02-26T17:34:57.581Z,31.35
2019-02-26T17:37:26.185Z,30.75
2019-02-26T17:39:54.219Z,31.35
2019-02-26T17:42:22.665Z,34.60
2019-02-26T17:44:50.735Z,29.82
2019-02-26T17:47:19.401Z,28.27
2019-02-26T17:49:48.046Z,27.67
2019-02-26T17:52:16.479Z,27.98
2019-02-26T17:54:44.578Z,27.27
2019-02-26T17:57:12.991Z,27.35
2019-02-26T17:59:41.462Z,27.77
2019-02-26T18:02:10.349Z,28.17
2019-02-26T18:04:38.787Z,29.90
2019-02-26T18:07:07.448Z,30.05
2019-02-26T18:09:35.773Z,29.20
2019-02-26T18:12:03.822Z,28.47
2019-02-26T18:14:32.991Z,29.15
2019-02-26T18:17:01.789Z,28.98
2019-02-26T18:19:30.194Z,29.15
2019-02-26T18:21:58.523Z,28.87
2019-02-26T18:24:27.328Z,28.65
2019-02-26T18:26:55.716Z,28.90
2019-02-26T18:29:25.660Z,28.77
2019-02-26T18:31:53.475Z,28.60
2019-02-26T18:34:22.172Z,27.90
2019-02-26T18:36:50.615Z,41.98
2019-02-26T18:39:22.383Z,31.70
2019-02-26T18:41:50.823Z,28.43
2019-02-26T18:44:20.545Z,27.82
2019-02-26T18:46:48.797Z,27.30
2019-02-26T18:49:17.168Z,28.60
2019-02-26T18:51:45.213Z,28.85
2019-02-26T18:54:13.610Z,30.33
2019-02-26T18:56:41.676Z,29.30
2019-02-26T18:59:10.005Z,29.70
2019-02-26T19:01:38.338Z,28.92
2019-02-26T19:04:06.417Z,29.15
2019-02-26T19:06:34.846Z,28.17
2019-02-26T19:09:03.585Z,28.25
2019-02-26T19:11:31.684Z,28.32
2019-02-26T19:14:00.330Z,27.85
2019-02-26T19:16:28.530Z,29.23
2019-02-26T19:18:56.618Z,27.82
2019-02-26T19:21:25.027Z,27.87
2019-02-26T19:23:53.076Z,27.98
2019-02-26T19:26:21.808Z,30.43
2019-02-26T19:28:50.607Z,29.70
2019-02-26T19:31:20.806Z,29.02
2019-02-26T19:33:48.868Z,28.85
2019-02-26T19:36:16.949Z,29.25
2019-02-26T19:38:45.342Z,28.30
2019-02-26T19:41:14.421Z,28.32
2019-02-26T19:43:42.752Z,29.40
2019-02-26T19:46:11.207Z,29.00
2019-02-26T19:48:39.514Z,29.95
2019-02-26T19:51:07.962Z,27.02
2019-02-26T19:53:35.950Z,27.67
2019-02-26T19:56:04.213Z,29.02
2019-02-26T19:58:32.274Z,27.22
2019-02-26T20:01:00.384Z,27.80
2019-02-26T20:03:39.301Z,27.80
2019-02-26T20:05:58.769Z,29.52
2019-02-26T20:08:27.140Z,28.27
2019-02-26T20:10:57.650Z,29.85
2019-02-26T20:13:25.732Z,28.57
2019-02-26T20:15:54.935Z,28.92
2019-02-26T20:18:25.991Z,29.40
2019-02-26T20:20:53.533Z,30.08
2019-02-26T20:23:22.156Z,29.20
2019-02-26T20:25:50.501Z,30.53
2019-02-26T20:28:18.890Z,30.75
2019-02-26T20:30:46.911Z,30.92
2019-02-26T20:33:15.461Z,32.08
2019-02-26T20:35:45.395Z,31.62
2019-02-26T20:38:13.508Z,33.30
2019-02-26T20:40:41.573Z,30.77
2019-02-26T20:43:09.628Z,31.70
2019-02-26T20:45:37.713Z,30.67
2019-02-26T20:48:06.157Z,30.50
2019-02-26T20:50:34.250Z,30.62
2019-02-26T20:53:05.617Z,30.85
2019-02-26T20:55:33.712Z,43.05
2019-02-26T20:58:02.080Z,44.40
2019-02-26T21:00:30.405Z,52.62
2019-02-26T21:02:59.067Z,76.90
2019-02-26T21:05:27.144Z,59.07
2019-02-26T21:07:58.076Z,55.30
2019-02-26T21:10:25.221Z,45.43
2019-02-26T21:12:53.600Z,39.13
2019-02-26T21:15:21.993Z,35.98
2019-02-26T21:17:50.679Z,38.02
2019-02-26T21:20:19.264Z,38.28
2019-02-26T21:22:47.645Z,38.30
2019-02-26T21:25:15.728Z,44.77
2019-02-26T21:27:43.788Z,37.08
2019-02-26T21:30:12.777Z,35.05
2019-02-26T21:32:40.816Z,34.83
2019-02-26T21:35:09.138Z,34.03
2019-02-26T21:37:37.696Z,34.33
2019-02-26T21:40:07.141Z,34.70
2019-02-26T21:42:35.956Z,36.15
2019-02-26T21:45:04.564Z,36.50
2019-02-26T21:47:32.609Z,36.77
2019-02-26T21:50:01.059Z,37.63
2019-02-26T21:52:29.501Z,39.55
2019-02-26T21:55:01.213Z,38.63
2019-02-26T21:57:27.907Z,38.45
2019-02-26T21:59:56.697Z,38.28
2019-02-26T22:02:24.907Z,38.63
2019-02-26T22:04:53.253Z,37.17
2019-02-26T22:07:22.350Z,36.03
2019-02-26T22:09:50.460Z,39.10
2019-02-26T22:12:18.832Z,38.20
2019-02-26T22:14:47.469Z,38.50
2019-02-26T22:17:15.612Z,38.75
2019-02-26T22:19:43.976Z,38.40
2019-02-26T22:22:12.031Z,40.28
2019-02-26T22:24:40.725Z,39.33
2019-02-26T22:27:09.326Z,39.10
2019-02-26T22:29:37.771Z,40.23
2019-02-26T22:32:05.857Z,41.15
2019-02-26T22:34:34.132Z,38.40
2019-02-26T22:37:07.000Z,40.53
2019-02-26T22:39:33.219Z,41.18
2019-02-26T22:42:01.583Z,40.80
2019-02-26T22:44:29.617Z,41.20
2019-02-26T22:46:59.203Z,40.50
2019-02-26T22:49:27.373Z,39.78
2019-02-26T22:51:58.471Z,41.90
2019-02-26T22:54:25.440Z,41.75
2019-02-26T22:56:56.635Z,42.50
2019-02-26T22:59:24.043Z,42.17
2019-02-26T23:01:53.108Z,43.10
2019-02-26T23:04:21.950Z,42.95
2019-02-26T23:06:50.431Z,41.00
2019-02-26T23:09:24.106Z,41.73
2019-02-26T23:11:52.623Z,41.50
2019-02-26T23:14:21.082Z,43.07
2019-02-26T23:16:52.035Z,41.60
2019-02-26T23:19:20.789Z,41.50
2019-02-26T23:21:49.990Z,42.50
2019-02-26T23:24:19.611Z,43.95
2019-02-26T23:26:47.661Z,45.30
2019-02-26T23:29:16.376Z,43.08
2019-02-26T23:31:44.416Z,42.50
2019-02-26T23:34:13.033Z,42.75
2019-02-26T23:36:41.924Z,44.37
2019-02-26T23:39:11.740Z,44.10
2019-02-26T23:41:39.813Z,44.20
2019-02-26T23:44:08.933Z,45.98
2019-02-26T23:46:37.203Z,42.88
2019-02-26T23:49:06.155Z,42.53
2019-02-26T23:51:34.946Z,42.73
2019-02-26T23:54:04.691Z,42.00
2019-02-26T23:56:33.546Z,43.83
2019-02-26T23:59:04.217Z,42.67
